Time;durP1;ratioP1;P1;durP2;ratioP2;P2;SDS_P1;SDS_P2;PMS_P1;PMS_P2;Temp;Humidity;BMP_temperature;BMP_pressure;BME280_temperature;BME280_humidity;BME280_pressure;Samples;Min_cycle;Max_cycle;Signal;HPM_P1;HPM_P2
2023/04/05 00:01:26;;;;;;;5.93;2.70;;;;;;;9.01;72.79;98306.19;6187371;23;20154;-85
2023/04/05 00:03:53;;;;;;;7.13;3.20;;;;;;;8.95;72.29;98299.56;6161308;23;20180;-86
2023/04/05 00:06:21;;;;;;;4.67;2.83;;;;;;;8.96;71.97;98298.59;6186647;23;20475;-86
2023/04/05 00:08:48;;;;;;;5.20;2.60;;;;;;;9.10;71.50;98305.63;6160563;23;20181;-85
2023/04/05 00:11:15;;;;;;;6.07;2.77;;;;;;;8.88;72.94;98302.63;6170030;23;20181;-86
2023/04/05 00:13:41;;;;;;;4.80;2.70;;;;;;;8.70;72.49;98295.84;6187018;23;20646;-85
2023/04/05 00:16:07;;;;;;;5.17;2.50;;;;;;;8.76;72.85;98296.31;6186438;23;20162;-86
2023/04/05 00:18:33;;;;;;;4.60;2.43;;;;;;;8.86;72.68;98299.22;6186641;23;20149;-85
2023/04/05 00:20:59;;;;;;;3.53;2.17;;;;;;;8.57;72.41;98300.94;6186607;23;20488;-85
2023/04/05 00:23:25;;;;;;;4.53;2.33;;;;;;;8.59;73.09;98299.09;6185531;23;20235;-86
2023/04/05 00:25:51;;;;;;;5.03;2.50;;;;;;;8.69;72.39;98302.00;6185211;23;20154;-86
2023/04/05 00:28:16;;;;;;;4.33;2.20;;;;;;;8.72;72.12;98300.06;6186113;23;20189;-86
2023/04/05 00:30:42;;;;;;;5.73;2.80;;;;;;;8.79;72.38;98305.75;6186807;23;20481;-86
2023/04/05 00:33:07;;;;;;;4.43;2.50;;;;;;;8.79;72.22;98313.59;6186452;23;20152;-86
2023/04/05 00:35:33;;;;;;;5.17;2.60;;;;;;;8.65;71.63;98320.47;6186242;23;20160;-86
2023/04/05 00:37:58;;;;;;;5.13;3.07;;;;;;;8.60;70.87;98316.44;6186062;23;20150;-86
2023/04/05 00:40:24;;;;;;;4.80;2.67;;;;;;;8.69;71.01;98315.91;6185154;23;20496;-87
2023/04/05 00:42:49;;;;;;;4.63;2.90;;;;;;;8.67;70.02;98317.78;6184911;23;20242;-85
2023/04/05 00:45:15;;;;;;;5.10;2.70;;;;;;;8.61;70.39;98320.72;6185406;23;20156;-87
2023/04/05 00:47:41;;;;;;;4.83;2.60;;;;;;;8.49;69.99;98319.66;6185277;23;20212;-87
2023/04/05 00:50:08;;;;;;;6.90;2.60;;;;;;;8.56;70.19;98331.47;6186582;23;20162;-88
2023/04/05 00:52:36;;;;;;;6.47;2.60;;;;;;;8.63;69.72;98322.31;6184940;23;20154;-87
2023/04/05 00:55:04;;;;;;;4.93;2.53;;;;;;;8.62;68.80;98323.25;6186516;23;20611;-86
2023/04/05 00:57:31;;;;;;;5.20;2.87;;;;;;;8.61;69.98;98326.81;6186464;23;20162;-86
2023/04/05 01:00:00;;;;;;;4.30;2.53;;;;;;;8.69;69.31;98318.53;6186181;23;20490;-87
2023/04/05 01:02:32;;;;;;;6.00;2.87;;;;;;;8.63;69.58;98317.09;6184912;23;20150;-87
2023/04/05 01:05:02;;;;;;;5.10;2.67;;;;;;;8.45;69.79;98317.31;6186105;23;20135;-86
2023/04/05 01:07:37;;;;;;;5.70;2.90;;;;;;;8.52;69.84;98324.72;6178688;23;20171;-88
2023/04/05 01:10:05;;;;;;;5.47;2.90;;;;;;;8.32;70.29;98311.94;6163416;23;20580;-87
2023/04/05 01:12:32;;;;;;;6.73;3.57;;;;;;;8.43;70.11;98319.19;6184687;23;20178;-87
2023/04/05 01:14:58;;;;;;;6.60;2.20;;;;;;;8.49;69.58;98318.84;6186090;23;20590;-87
2023/04/05 01:17:35;;;;;;;5.87;3.17;;;;;;;8.44;69.76;98323.44;6177802;23;20656;-88
2023/04/05 01:20:09;;;;;;;5.67;2.53;;;;;;;8.51;69.39;98317.81;6174238;23;20130;-87
2023/04/05 01:22:36;;;;;;;5.27;3.47;;;;;;;8.41;69.36;98321.84;6181028;23;20511;-88
2023/04/05 01:25:37;;;;;;;6.20;3.47;;;;;;;8.65;69.50;98324.84;6185145;23;20154;-87
2023/04/05 01:28:06;;;;;;;5.00;2.73;;;;;;;8.66;69.36;98321.31;6104807;23;20197;-87
2023/04/05 01:30:36;;;;;;;6.67;3.43;;;;;;;8.69;68.99;98321.13;6184567;23;20155;-87
2023/04/05 01:33:22;;;;;;;6.90;3.40;;;;;;;8.64;68.72;98326.63;6186568;23;20182;-87
2023/04/05 01:35:58;;;;;;;5.67;3.07;;;;;;;8.49;69.24;98324.88;6186241;23;20599;-87
2023/04/05 01:38:26;;;;;;;4.13;2.87;;;;;;;8.54;68.97;98322.03;6186195;23;20142;-87
2023/04/05 01:40:53;;;;;;;7.60;3.87;;;;;;;8.56;68.88;98331.47;6184470;23;20182;-86
2023/04/05 01:43:18;;;;;;;6.50;3.43;;;;;;;8.47;69.40;98320.66;6186458;23;20484;-88
2023/04/05 01:45:45;;;;;;;7.77;4.47;;;;;;;8.52;70.05;98329.09;6185739;23;20157;-87
2023/04/05 01:48:11;;;;;;;5.97;2.93;;;;;;;8.43;69.15;98340.06;6184644;23;20505;-87
2023/04/05 01:50:37;;;;;;;10.60;5.30;;;;;;;8.48;69.71;98343.25;6184355;23;20154;-87
2023/04/05 01:53:02;;;;;;;8.07;3.63;;;;;;;8.39;69.60;98344.59;6185764;23;20502;-87
2023/04/05 01:55:28;;;;;;;6.77;3.77;;;;;;;8.40;68.90;98356.75;6185511;23;20174;-86
2023/04/05 01:57:55;;;;;;;5.57;3.20;;;;;;;8.39;69.68;98356.81;6185745;23;20155;-88
2023/04/05 02:00:21;;;;;;;8.27;3.37;;;;;;;8.39;69.38;98364.66;6184095;23;20486;-88
2023/04/05 02:02:46;;;;;;;5.00;2.77;;;;;;;8.44;69.49;98345.19;6185683;23;20146;-88
2023/04/05 02:05:11;;;;;;;5.23;2.87;;;;;;;8.32;69.83;98352.88;6185634;23;20180;-87
2023/04/05 02:07:37;;;;;;;6.23;3.30;;;;;;;8.39;69.93;98360.28;6185338;23;20195;-88
2023/04/05 02:10:03;;;;;;;5.77;2.97;;;;;;;8.36;70.01;98349.19;6185856;23;20478;-88
2023/04/05 02:12:29;;;;;;;6.80;3.40;;;;;;;8.31;69.91;98353.78;6184206;23;20816;-87
2023/04/05 02:14:54;;;;;;;6.17;3.70;;;;;;;8.19;69.73;98357.91;6184210;23;20182;-88
2023/04/05 02:17:20;;;;;;;7.57;3.87;;;;;;;8.25;70.12;98356.72;6184281;23;20166;-88
2023/04/05 02:19:46;;;;;;;6.07;2.60;;;;;;;8.31;70.01;98364.22;6184664;23;20150;-88
2023/04/05 02:22:12;;;;;;;8.07;4.00;;;;;;;8.31;70.28;98366.84;6184810;23;20166;-88
2023/04/05 02:24:38;;;;;;;7.37;3.93;;;;;;;8.32;69.53;98371.16;6184559;23;20198;-88
2023/04/05 02:27:04;;;;;;;7.33;3.40;;;;;;;8.41;70.06;98368.03;6185072;23;20154;-86
2023/04/05 02:29:30;;;;;;;6.83;3.50;;;;;;;8.40;69.64;98366.34;6186476;23;20209;-87
2023/04/05 02:31:56;;;;;;;6.20;3.43;;;;;;;8.39;69.26;98372.47;6184131;23;20162;-88
2023/04/05 02:34:21;;;;;;;6.20;3.30;;;;;;;8.56;68.56;98367.19;6184144;23;20150;-87
2023/04/05 02:36:49;;;;;;;6.57;3.43;;;;;;;8.64;69.16;98375.41;6185433;23;20550;-87
2023/04/05 02:39:15;;;;;;;7.13;4.20;;;;;;;8.73;68.52;98369.66;6185740;23;20166;-87
2023/04/05 02:41:40;;;;;;;8.47;3.27;;;;;;;8.75;67.47;98372.19;6185723;23;20147;-87
2023/04/05 02:44:06;;;;;;;5.70;3.33;;;;;;;8.72;68.42;98373.22;6185365;23;20150;-87
2023/04/05 02:46:31;;;;;;;6.87;3.23;;;;;;;8.72;68.14;98380.19;6183929;23;20173;-87
2023/04/05 02:48:56;;;;;;;6.43;3.17;;;;;;;8.57;68.25;98379.28;6183962;23;20178;-87
2023/04/05 02:51:22;;;;;;;6.80;3.33;;;;;;;8.64;68.21;98376.25;6185678;23;20461;-87
2023/04/05 02:53:48;;;;;;;6.97;3.80;;;;;;;8.56;68.10;98385.47;6182041;23;20158;-87
2023/04/05 02:56:13;;;;;;;7.07;3.67;;;;;;;8.26;68.25;98390.56;6183986;23;20235;-87
2023/04/05 02:58:42;;;;;;;7.53;3.80;;;;;;;8.22;68.82;98394.28;6184053;23;20168;-87
2023/04/05 03:01:08;;;;;;;5.27;3.20;;;;;;;8.25;69.80;98382.84;6184021;23;20187;-87
2023/04/05 03:03:33;;;;;;;7.13;3.53;;;;;;;8.21;69.61;98391.75;6185883;23;20170;-87
2023/04/05 03:06:09;;;;;;;5.93;3.20;;;;;;;8.21;69.80;98397.81;6184016;23;20174;-88
2023/04/05 03:08:37;;;;;;;5.60;3.40;;;;;;;8.16;70.22;98396.38;6185703;23;20182;-88
2023/04/05 03:11:05;;;;;;;5.57;3.30;;;;;;;8.09;68.91;98400.25;6183799;23;20170;-87
2023/04/05 03:13:31;;;;;;;8.47;4.13;;;;;;;8.07;70.06;98396.91;6185219;23;20158;-88
2023/04/05 03:15:56;;;;;;;12.57;4.53;;;;;;;8.16;69.97;98409.44;6184165;23;20159;-88
2023/04/05 03:18:24;;;;;;;6.93;3.50;;;;;;;8.13;69.05;98399.16;6183874;23;20238;-87
2023/04/05 03:20:55;;;;;;;9.37;4.63;;;;;;;8.10;69.58;98409.78;6184108;23;20166;-88
2023/04/05 03:23:25;;;;;;;7.87;3.93;;;;;;;7.98;69.88;98406.91;6187490;23;20539;-87
2023/04/05 03:25:53;;;;;;;6.53;3.80;;;;;;;8.02;69.53;98410.16;6187409;23;20678;-88
2023/04/05 03:28:18;;;;;;;7.80;4.13;;;;;;;8.03;69.31;98412.72;6186883;23;20311;-88
2023/04/05 03:30:44;;;;;;;7.23;3.63;;;;;;;8.00;69.59;98415.47;6185814;23;20545;-88
2023/04/05 03:33:09;;;;;;;6.27;3.77;;;;;;;7.96;69.19;98413.97;6185772;23;20243;-88
2023/04/05 03:35:35;;;;;;;7.03;4.00;;;;;;;7.98;68.97;98412.13;6185739;23;20163;-88
2023/04/05 03:38:00;;;;;;;6.87;3.70;;;;;;;8.03;68.75;98419.69;6187597;23;20166;-88
2023/04/05 03:40:26;;;;;;;8.00;4.13;;;;;;;8.00;69.05;98415.47;6187294;23;20150;-89
2023/04/05 03:42:51;;;;;;;9.03;4.40;;;;;;;7.81;69.28;98414.78;6185704;23;20204;-88
2023/04/05 03:45:17;;;;;;;6.87;3.90;;;;;;;7.79;69.73;98416.63;6185558;23;20545;-88
2023/04/05 03:47:43;;;;;;;8.03;3.53;;;;;;;7.78;69.27;98414.94;6186867;23;20175;-87
2023/04/05 03:50:08;;;;;;;7.03;3.60;;;;;;;7.79;68.86;98421.84;6187206;23;20161;-88
2023/04/05 03:52:34;;;;;;;7.23;4.23;;;;;;;7.88;69.29;98415.31;6187180;23;20226;-87
2023/04/05 03:55:00;;;;;;;7.33;4.03;;;;;;;7.97;68.93;98425.22;6185597;23;20160;-87
2023/04/05 03:57:27;;;;;;;9.20;4.70;;;;;;;7.95;69.12;98424.47;6185486;23;20229;-87
2023/04/05 03:59:53;;;;;;;9.60;5.27;;;;;;;8.05;68.07;98430.88;6186818;23;20147;-87
2023/04/05 04:02:18;;;;;;;6.47;3.50;;;;;;;7.93;68.69;98435.00;6187441;23;20284;-87
2023/04/05 04:04:45;;;;;;;7.60;4.40;;;;;;;7.99;68.01;98434.66;6186575;23;20154;-87
2023/04/05 04:07:10;;;;;;;5.63;3.70;;;;;;;7.94;68.00;98441.03;6184729;23;20157;-87
2023/04/05 04:09:35;;;;;;;9.77;4.30;;;;;;;7.99;68.03;98442.50;6186169;23;20150;-87
2023/04/05 04:12:01;;;;;;;9.47;4.93;;;;;;;7.97;68.22;98444.34;6185650;23;20257;-87
2023/04/05 04:14:26;;;;;;;7.70;4.27;;;;;;;7.89;68.10;98437.84;6185336;23;20161;-88
2023/04/05 04:16:52;;;;;;;7.87;4.07;;;;;;;7.93;68.97;98439.38;6185419;23;20161;-86
2023/04/05 04:19:17;;;;;;;7.77;4.23;;;;;;;7.92;67.95;98443.75;6186842;23;20157;-87
2023/04/05 04:21:49;;;;;;;9.43;4.20;;;;;;;7.79;68.87;98447.94;6187268;23;20161;-88
2023/04/05 04:24:17;;;;;;;8.97;3.77;;;;;;;7.97;68.03;98451.31;6185290;23;20461;-87
2023/04/05 04:26:46;;;;;;;6.27;3.83;;;;;;;7.96;68.62;98457.50;6186539;23;20216;-87
2023/04/05 04:29:12;;;;;;;8.43;4.80;;;;;;;8.17;67.77;98458.09;6184868;23;20189;-88
2023/04/05 04:31:38;;;;;;;10.13;4.43;;;;;;;7.95;68.36;98454.03;6186471;23;20485;-88
2023/04/05 04:34:04;;;;;;;12.30;5.10;;;;;;;8.06;67.28;98453.47;6187106;23;20155;-87
2023/04/05 04:36:38;;;;;;;11.27;4.33;;;;;;;8.19;67.96;98464.94;6186506;23;20226;-87
2023/04/05 04:39:06;;;;;;;7.87;4.57;;;;;;;8.12;68.22;98467.97;6186791;23;20140;-87
2023/04/05 04:41:37;;;;;;;6.97;3.90;;;;;;;8.18;67.74;98467.59;6185105;23;20585;-87
2023/04/05 04:44:03;;;;;;;7.90;4.23;;;;;;;8.12;67.41;98474.03;6186378;23;20150;-87
2023/04/05 04:46:33;;;;;;;6.20;3.57;;;;;;;8.23;67.50;98478.69;6186804;23;20151;-87
2023/04/05 04:49:04;;;;;;;8.23;3.97;;;;;;;8.27;66.98;98475.00;6184973;23;20265;-87
2023/04/05 04:51:31;;;;;;;5.57;3.20;;;;;;;8.14;66.78;98480.00;6187050;23;20146;-87
2023/04/05 04:53:57;;;;;;;7.10;3.17;;;;;;;8.17;66.68;98477.22;6185081;23;20150;-87
2023/04/05 04:56:22;;;;;;;5.93;2.87;;;;;;;8.20;67.00;98479.66;6186296;23;20162;-87
2023/04/05 04:58:57;;;;;;;6.73;3.27;;;;;;;8.27;66.59;98477.59;6182878;23;20156;-87
2023/04/05 05:01:23;;;;;;;7.57;3.73;;;;;;;8.14;67.04;98479.16;6186207;23;20150;-87
2023/04/05 05:03:50;;;;;;;6.13;2.87;;;;;;;8.27;66.78;98478.44;6186516;23;20154;-87
2023/04/05 05:06:20;;;;;;;6.30;3.10;;;;;;;8.19;67.19;98480.59;6185354;23;20226;-87
2023/04/05 05:08:46;;;;;;;9.50;4.07;;;;;;;8.25;66.70;98482.88;6184783;23;20179;-87
2023/04/05 05:11:12;;;;;;;6.20;3.27;;;;;;;8.51;65.40;98489.34;6172481;23;20194;-87
2023/04/05 05:13:37;;;;;;;7.50;3.17;;;;;;;8.54;65.35;98486.56;6157120;23;20156;-87
2023/04/05 05:16:04;;;;;;;6.63;3.47;;;;;;;8.58;64.90;98490.69;6156838;23;20213;-87
2023/04/05 05:18:30;;;;;;;5.47;3.37;;;;;;;8.64;63.85;98490.34;6156288;23;20163;-86
2023/04/05 05:20:55;;;;;;;8.43;3.67;;;;;;;8.71;63.85;98496.91;6156716;23;20179;-87
2023/04/05 05:23:21;;;;;;;6.87;3.30;;;;;;;8.76;63.59;98487.06;6156230;23;20151;-87
2023/04/05 05:25:47;;;;;;;13.27;3.30;;;;;;;8.95;63.09;98490.34;6156325;23;20607;-87
2023/04/05 05:28:12;;;;;;;5.60;2.53;;;;;;;8.77;62.75;98491.38;6130373;23;20318;-87
2023/04/05 05:30:38;;;;;;;4.33;2.60;;;;;;;8.93;63.45;98497.44;6130927;23;20189;-87
2023/04/05 05:33:03;;;;;;;5.53;2.40;;;;;;;8.82;63.84;98489.34;6156210;23;20543;-88
2023/04/05 05:35:29;;;;;;;6.97;3.13;;;;;;;9.00;63.67;98490.91;6156627;23;20151;-88
2023/04/05 05:37:57;;;;;;;5.17;2.50;;;;;;;8.90;63.11;98492.38;6156605;23;20147;-88
2023/04/05 05:40:25;;;;;;;6.47;3.00;;;;;;;8.85;62.99;98497.00;6156273;23;20222;-87
2023/04/05 05:42:50;;;;;;;5.60;2.90;;;;;;;8.86;61.96;98485.59;6156127;23;20210;-88
2023/04/05 05:45:16;;;;;;;7.03;3.00;;;;;;;9.10;62.55;98491.22;6156256;23;20154;-89
2023/04/05 05:47:41;;;;;;;6.83;3.03;;;;;;;9.12;61.75;98489.34;6130247;23;20184;-88
2023/04/05 05:50:08;;;;;;;7.63;3.57;;;;;;;9.40;61.67;98484.25;6156120;23;20147;-88
2023/04/05 05:52:34;;;;;;;6.93;2.97;;;;;;;9.19;62.19;98501.19;6156684;23;20165;-89
2023/04/05 05:55:00;;;;;;;8.10;3.97;;;;;;;9.17;61.11;98506.47;6130158;23;20590;-88
2023/04/05 05:57:26;;;;;;;8.47;3.90;;;;;;;9.26;61.18;98505.13;6130264;23;20173;-88
2023/04/05 05:59:51;;;;;;;6.97;3.57;;;;;;;9.42;62.33;98494.59;6155822;23;20651;-88
2023/04/05 06:02:17;;;;;;;5.47;3.37;;;;;;;9.57;61.37;98496.31;6155856;23;20162;-88
2023/04/05 06:04:42;;;;;;;8.33;3.63;;;;;;;9.54;59.59;98494.72;6130216;23;20543;-88
2023/04/05 06:07:11;;;;;;;8.30;3.57;;;;;;;9.75;60.43;98500.47;6156261;23;20158;-87
2023/04/05 06:09:36;;;;;;;6.30;3.47;;;;;;;9.96;58.69;98498.38;6156304;23;20570;-89
2023/04/05 06:12:02;;;;;;;5.60;3.27;;;;;;;9.92;59.02;98496.84;6180647;23;20601;-88
2023/04/05 06:14:30;;;;;;;7.03;3.30;;;;;;;9.83;58.89;98500.88;6186358;23;20154;-87
2023/04/05 06:16:56;;;;;;;6.57;2.90;;;;;;;9.97;58.69;98502.66;6186101;23;20150;-87
2023/04/05 06:19:22;;;;;;;5.40;3.03;;;;;;;10.04;59.82;98503.97;6159508;23;20221;-89
2023/04/05 06:21:47;;;;;;;7.93;4.47;;;;;;;10.22;60.32;98514.19;6185847;23;20157;-88
2023/04/05 06:24:12;;;;;;;7.10;3.70;;;;;;;10.15;57.74;98518.13;6159524;23;20600;-89
2023/04/05 06:26:38;;;;;;;6.13;3.27;;;;;;;10.00;58.82;98512.94;6159828;23;20155;-87
2023/04/05 06:29:03;;;;;;;6.10;2.73;;;;;;;9.99;60.25;98517.34;6159765;23;20196;-88
2023/04/05 06:31:34;;;;;;;5.60;3.33;;;;;;;10.33;59.97;98521.41;6185431;23;20481;-88
2023/04/05 06:34:00;;;;;;;4.20;2.30;;;;;;;10.44;60.33;98519.81;6159907;23;20157;-87
2023/04/05 06:36:28;;;;;;;5.23;3.20;;;;;;;10.17;59.84;98521.50;6185954;23;20183;-89
2023/04/05 06:38:54;;;;;;;7.73;2.90;;;;;;;10.47;60.06;98527.50;6159445;23;20188;-87
2023/04/05 06:41:20;;;;;;;6.83;3.20;;;;;;;10.68;59.67;98527.94;6159808;23;20582;-88
2023/04/05 06:43:48;;;;;;;5.53;3.10;;;;;;;10.94;56.39;98526.28;6185929;23;20147;-89
2023/04/05 06:46:13;;;;;;;4.80;2.73;;;;;;;11.07;57.03;98528.03;6159878;23;20154;-88
2023/04/05 06:48:39;;;;;;;4.53;2.67;;;;;;;11.17;55.79;98525.66;6185430;23;20624;-87
2023/04/05 06:51:04;;;;;;;4.40;2.83;;;;;;;11.41;54.72;98529.31;6159827;23;20211;-87
2023/04/05 06:53:30;;;;;;;5.83;2.53;;;;;;;11.60;57.15;98529.78;6159457;23;20229;-88
2023/04/05 06:55:57;;;;;;;4.97;2.80;;;;;;;11.66;55.40;98534.59;6185858;23;20150;-88
2023/04/05 06:58:24;;;;;;;5.47;3.10;;;;;;;11.55;54.69;98537.13;6187892;23;20149;-88
2023/04/05 07:00:50;;;;;;;5.33;2.47;;;;;;;11.68;55.30;98542.41;6161845;23;20562;-89
2023/04/05 07:03:16;;;;;;;5.37;2.90;;;;;;;11.96;55.24;98541.41;6161428;23;20178;-88
2023/04/05 07:05:59;;;;;;;5.93;2.83;;;;;;;11.87;53.23;98537.63;6187872;23;20175;-89
2023/04/05 07:08:26;;;;;;;8.03;3.30;;;;;;;11.88;52.96;98538.47;6161272;23;20198;-89
2023/04/05 07:10:52;;;;;;;5.37;2.30;;;;;;;11.89;52.26;98548.03;6186626;23;20191;-89
2023/04/05 07:13:20;;;;;;;4.53;2.43;;;;;;;11.72;52.21;98554.41;6159799;23;20159;-87
2023/04/05 07:15:45;;;;;;;4.57;2.07;;;;;;;11.68;53.52;98559.03;6159563;23;20159;-89
2023/04/05 07:18:11;;;;;;;2.97;1.83;;;;;;;11.35;51.72;98566.44;6186013;23;20147;-89
2023/04/05 07:20:37;;;;;;;3.57;1.87;;;;;;;11.11;53.87;98563.59;6160487;23;20234;-89
2023/04/05 07:23:04;;;;;;;4.07;2.20;;;;;;;11.15;53.69;98566.88;6160540;23;20217;-88
2023/04/05 07:25:33;;;;;;;4.07;1.73;;;;;;;11.23;53.41;98567.22;6185693;23;20162;-89
2023/04/05 07:27:58;;;;;;;3.97;1.67;;;;;;;11.29;52.00;98572.09;6159640;23;20269;-89
2023/04/05 07:30:25;;;;;;;5.43;2.33;;;;;;;11.36;52.98;98576.00;6185384;23;20182;-89
2023/04/05 07:32:51;;;;;;;8.13;3.70;;;;;;;11.40;52.27;98569.59;6185335;23;20562;-88
2023/04/05 07:35:22;;;;;;;4.47;2.60;;;;;;;11.35;52.40;98576.06;6185624;23;20154;-89
2023/04/05 07:37:47;;;;;;;6.10;2.53;;;;;;;11.47;53.17;98576.16;6160018;23;20142;-89
2023/04/05 07:40:13;;;;;;;3.03;1.30;;;;;;;11.19;53.47;98586.72;6159267;23;20169;-89
2023/04/05 07:42:39;;;;;;;6.47;2.93;;;;;;;11.29;53.33;98581.75;6159539;23;20221;-89
2023/04/05 07:45:05;;;;;;;8.30;3.27;;;;;;;11.37;51.79;98585.53;6159650;23;20150;-89
2023/04/05 07:47:33;;;;;;;9.30;2.50;;;;;;;11.27;51.64;98579.19;6159458;23;20564;-88
2023/04/05 07:49:59;;;;;;;4.50;2.10;;;;;;;11.43;52.17;98579.91;6185192;23;20148;-89
2023/04/05 07:52:24;;;;;;;3.57;1.97;;;;;;;11.41;53.11;98587.03;6159443;23;20166;-89
2023/04/05 07:54:51;;;;;;;5.17;1.87;;;;;;;11.33;52.33;98589.31;6185617;23;20286;-89
2023/04/05 07:57:17;;;;;;;3.83;1.93;;;;;;;11.24;53.69;98587.25;6185127;23;20147;-89
2023/04/05 07:59:43;;;;;;;7.60;3.03;;;;;;;11.47;51.21;98591.06;6185185;23;20173;-89
2023/04/05 08:02:11;;;;;;;5.53;2.57;;;;;;;11.42;52.02;98590.50;6159110;23;20154;-89
2023/04/05 08:04:36;;;;;;;6.03;2.13;;;;;;;11.58;53.04;98589.41;6185495;23;20151;-89
2023/04/05 08:07:02;;;;;;;4.40;2.50;;;;;;;11.68;52.29;98584.41;6158651;23;20154;-89
2023/04/05 08:09:27;;;;;;;4.43;2.00;;;;;;;11.68;52.56;98587.03;6160351;23;20152;-88
2023/04/05 08:11:52;;;;;;;3.47;1.80;;;;;;;11.78;50.83;98585.50;6136071;23;1167001;-89
2023/04/05 08:14:18;;;;;;;4.23;1.73;;;;;;;11.75;51.07;98590.97;6186669;23;20159;-89
2023/04/05 08:16:43;;;;;;;5.90;2.43;;;;;;;11.65;52.39;98584.59;6160562;23;20478;-90
2023/04/05 08:19:09;;;;;;;3.57;1.80;;;;;;;11.96;51.46;98579.03;6161632;23;20152;-89
2023/04/05 08:21:34;;;;;;;3.83;1.80;;;;;;;12.00;50.84;98584.94;6187199;23;20224;-89
2023/04/05 08:24:00;;;;;;;4.60;2.10;;;;;;;12.19;53.57;98583.56;6160568;23;20242;-90
2023/04/05 08:26:26;;;;;;;3.43;1.87;;;;;;;12.30;51.64;98588.09;6160525;23;20157;-89
2023/04/05 08:28:51;;;;;;;3.10;1.63;;;;;;;12.10;53.56;98592.09;6186799;23;20175;-90
2023/04/05 08:31:17;;;;;;;6.57;2.40;;;;;;;12.31;51.67;98595.06;6160499;23;20573;-89
2023/04/05 08:33:42;;;;;;;5.37;2.20;;;;;;;12.41;49.81;98590.84;6161112;23;20677;-89
2023/04/05 08:36:09;;;;;;;4.53;2.40;;;;;;;12.59;50.12;98591.34;6186789;23;20163;-90
2023/04/05 08:38:34;;;;;;;4.70;2.03;;;;;;;12.69;51.41;98590.59;6160693;23;20161;-90
2023/04/05 08:41:32;;;;;;;5.07;2.27;;;;;;;12.86;49.31;98598.19;6187409;23;20153;-90
2023/04/05 08:44:04;;;;;;;4.70;2.20;;;;;;;13.12;48.54;98598.13;6160719;23;20503;-90
2023/04/05 08:46:31;;;;;;;3.47;1.60;;;;;;;13.15;48.29;98593.50;6160281;23;20240;-89
2023/04/05 08:48:57;;;;;;;3.90;2.00;;;;;;;13.31;48.30;98601.16;6186215;23;20205;-89
2023/04/05 08:51:24;;;;;;;3.77;1.87;;;;;;;13.44;47.54;98604.56;6160245;23;20165;-90
2023/04/05 08:53:50;;;;;;;4.70;2.17;;;;;;;13.57;47.45;98599.25;6160266;23;20542;-90
2023/04/05 08:56:22;;;;;;;3.53;1.97;;;;;;;13.72;46.59;98598.13;6186223;23;20154;-90
2023/04/05 08:59:00;;;;;;;3.60;2.00;;;;;;;13.62;46.00;98605.00;6186311;23;20162;-90
2023/04/05 09:01:28;;;;;;;5.30;2.37;;;;;;;13.53;47.03;98614.41;6160284;23;20149;-89
2023/04/05 09:03:56;;;;;;;5.23;2.47;;;;;;;13.48;48.15;98613.91;6160515;23;20230;-90
2023/04/05 09:06:21;;;;;;;4.63;2.57;;;;;;;13.63;47.06;98611.94;6161127;23;20162;-90
2023/04/05 09:08:48;;;;;;;6.03;2.80;;;;;;;13.80;47.68;98619.47;6160163;23;20208;-90
2023/04/05 09:11:15;;;;;;;4.57;2.20;;;;;;;13.70;45.38;98616.69;6185666;23;20253;-90
2023/04/05 09:13:41;;;;;;;3.93;1.77;;;;;;;13.74;46.04;98628.66;6161000;23;20453;-90
2023/04/05 09:16:07;;;;;;;4.07;2.33;;;;;;;13.88;46.46;98625.84;6160518;23;20150;-90
2023/04/05 09:18:32;;;;;;;3.90;2.30;;;;;;;13.86;47.14;98633.00;6159787;23;20237;-90
2023/04/05 09:21:03;;;;;;;3.70;2.10;;;;;;;13.94;47.45;98629.84;6160715;23;20249;-90
2023/04/05 09:23:29;;;;;;;4.43;1.87;;;;;;;14.02;47.23;98628.28;6160284;23;20479;-90
2023/04/05 09:25:54;;;;;;;3.97;2.07;;;;;;;14.21;46.20;98619.84;6160626;23;20151;-89
2023/04/05 09:28:20;;;;;;;4.60;2.43;;;;;;;14.16;45.81;98630.75;6160173;23;20186;-90
2023/04/05 09:30:46;;;;;;;5.67;2.40;;;;;;;14.35;45.80;98624.97;6159984;23;20158;-89
2023/04/05 09:33:17;;;;;;;3.90;1.80;;;;;;;14.43;45.27;98617.31;6186224;23;20147;-90
2023/04/05 09:35:43;;;;;;;3.27;1.70;;;;;;;14.47;44.36;98621.38;6186546;23;20145;-90
2023/04/05 09:38:09;;;;;;;3.93;1.90;;;;;;;14.45;43.52;98630.34;6186111;23;20143;-90
2023/04/05 09:40:43;;;;;;;3.60;1.73;;;;;;;14.56;45.10;98627.75;6160820;23;20618;-90
2023/04/05 09:43:32;;;;;;;4.50;2.13;;;;;;;14.65;46.49;98629.66;6160199;23;20244;-90
2023/04/05 09:45:58;;;;;;;3.53;2.00;;;;;;;14.57;46.25;98624.16;6186328;23;20150;-90
2023/04/05 09:48:47;;;;;;;4.97;2.47;;;;;;;14.62;45.61;98633.38;6160080;23;20245;-90
2023/04/05 09:51:16;;;;;;;7.53;3.73;;;;;;;14.63;48.60;98629.78;6159646;23;20181;-90
2023/04/05 09:54:03;;;;;;;6.03;2.67;;;;;;;14.52;45.18;98628.94;6160723;23;20175;-90
2023/04/05 09:56:35;;;;;;;4.93;2.60;;;;;;;14.35;45.41;98635.50;6159988;23;20157;-89
2023/04/05 09:59:11;;;;;;;5.67;2.80;;;;;;;14.22;47.95;98628.59;6160351;23;20562;-90
2023/04/05 10:01:41;;;;;;;5.57;2.30;;;;;;;14.04;48.36;98629.03;6159867;23;20293;-89
2023/04/05 10:04:07;;;;;;;4.40;2.03;;;;;;;13.91;47.66;98630.91;6186306;23;20274;-90
2023/04/05 10:06:38;;;;;;;6.30;2.20;;;;;;;14.08;48.33;98641.00;6186110;23;20214;-90
2023/04/05 10:09:05;;;;;;;3.73;2.10;;;;;;;13.99;48.05;98632.97;6185484;23;20555;-90
2023/04/05 10:11:35;;;;;;;6.37;2.33;;;;;;;13.74;48.01;98636.56;6185348;23;20287;-91
2023/04/05 10:14:03;;;;;;;2.90;1.87;;;;;;;13.86;49.02;98633.00;6159521;23;20166;-90
2023/04/05 10:16:32;;;;;;;3.67;2.00;;;;;;;13.93;46.98;98633.41;6186206;23;20171;-90
2023/04/05 10:18:58;;;;;;;5.70;2.17;;;;;;;13.95;48.35;98631.50;6185453;23;20169;-90
2023/04/05 10:21:28;;;;;;;5.93;2.20;;;;;;;14.01;47.85;98637.16;6159540;23;20587;-90
2023/04/05 10:24:09;;;;;;;4.13;1.77;;;;;;;13.85;47.84;98636.63;6185432;23;20135;-90
2023/04/05 10:27:07;;;;;;;3.70;1.90;;;;;;;13.66;45.96;98644.16;6185868;23;20166;-91
2023/04/05 10:29:46;;;;;;;3.67;2.00;;;;;;;13.51;48.83;98640.88;6175000;23;20163;-90
2023/04/05 10:32:28;;;;;;;4.67;2.10;;;;;;;13.76;47.35;98641.69;6185792;23;20537;-90
2023/04/05 10:35:03;;;;;;;3.60;1.90;;;;;;;13.60;46.33;98641.16;6186085;23;20226;-91
2023/04/05 10:37:58;;;;;;;3.30;1.90;;;;;;;13.42;46.90;98648.56;6185857;23;20146;-91
2023/04/05 10:40:30;;;;;;;3.13;1.67;;;;;;;13.54;47.60;98637.19;6186070;23;20273;-90
2023/04/05 10:42:56;;;;;;;3.30;1.60;;;;;;;13.76;47.34;98641.69;6159504;23;20152;-90
2023/04/05 10:45:24;;;;;;;3.70;1.73;;;;;;;13.94;46.11;98640.38;6186009;23;20218;-90
2023/04/05 10:47:56;;;;;;;3.27;1.70;;;;;;;14.01;47.23;98642.44;6159251;23;20182;-91
2023/04/05 10:50:23;;;;;;;3.90;1.97;;;;;;;13.78;46.91;98638.03;6185479;23;20158;-90
2023/04/05 10:52:52;;;;;;;3.87;2.20;;;;;;;13.96;45.48;98641.09;6185353;23;20263;-90
2023/04/05 10:55:18;;;;;;;4.77;1.97;;;;;;;14.09;45.99;98645.34;6185413;23;20227;-90
2023/04/05 10:57:46;;;;;;;5.07;2.17;;;;;;;14.26;46.46;98635.31;6159607;23;20153;-90
2023/04/05 11:00:13;;;;;;;4.60;2.47;;;;;;;14.12;45.53;98644.28;6159663;23;20156;-90
2023/04/05 11:02:38;;;;;;;6.03;2.90;;;;;;;13.40;47.55;98650.47;6185268;23;20218;-89
2023/04/05 11:05:04;;;;;;;4.37;1.87;;;;;;;13.39;47.35;98649.63;6185592;23;20146;-90
2023/04/05 11:07:44;;;;;;;3.87;1.70;;;;;;;13.37;48.10;98645.44;6185203;23;20191;-91
2023/04/05 11:10:17;;;;;;;4.00;2.07;;;;;;;13.49;48.58;98648.00;6185095;23;20150;-91
2023/04/05 11:12:45;;;;;;;5.03;2.30;;;;;;;13.48;49.67;98649.00;6159370;23;20151;-92
2023/04/05 11:15:32;;;;;;;4.60;1.77;;;;;;;13.21;50.69;98644.84;6159382;23;20594;-91
2023/04/05 11:18:19;;;;;;;3.33;1.77;;;;;;;12.24;55.00;98648.94;6159434;23;20147;-92
2023/04/05 11:20:50;;;;;;;3.23;1.47;;;;;;;12.20;55.48;98660.63;6159295;23;20596;-90
2023/04/05 11:23:20;;;;;;;2.73;1.70;;;;;;;12.31;57.43;98663.38;6160446;23;20150;-93
2023/04/05 11:25:53;;;;;;;3.50;1.57;;;;;;;12.22;57.06;98671.84;6185326;23;20563;-90
2023/04/05 11:28:40;;;;;;;3.40;1.40;;;;;;;12.24;58.20;98667.34;6159254;23;20182;-90
2023/04/05 11:31:18;;;;;;;2.77;1.60;;;;;;;12.59;56.55;98657.94;6185616;23;20138;-90
2023/04/05 11:33:44;;;;;;;2.60;1.43;;;;;;;12.60;55.80;98659.63;6185827;23;20134;-91
2023/04/05 11:36:10;;;;;;;2.43;1.50;;;;;;;12.46;56.21;98654.44;6185180;23;20220;-91
2023/04/05 11:38:36;;;;;;;2.33;1.17;;;;;;;12.42;56.54;98650.31;6185058;23;20150;-90
2023/04/05 11:41:16;;;;;;;3.23;1.43;;;;;;;12.68;56.47;98652.03;6185089;23;20188;-90